Overseas Atalmar — V7HP7 — position and weather

sailwx.info

Track history (hours):
 
Tides and Currents Weather Stations Pressure Air Temp Water Temp Dewpoint Dewpoint Depression Visibility Wind Speed Wind Dir Waves Ship Positions

Overseas Atalmar

Last reported at 2017-Oct-02 17:12 UTC. Time now 2017-Oct-20 16:13 UTC.
Position N 23°18' W 111°48'.
Warning: this ship's position is 17 days out of date.

Length 182 m; draft 7.7 m.

Type: Tanker. MMSI: 538002285.

Date/timePositionNaut miles runAvg speedWind from/ knotsBaromVisibWave heightAir tempDewpointWater temp
2017-Oct-02 17:12N 23°18' W 111°48'3712.4
2017-Oct-02 14:13N 23°47' W 112°14'412.5
2017-Oct-02 13:52N 23°50' W 112°17'412.3
2017-Oct-02 13:30N 23°53' W 112°20'612.2
2017-Oct-02 13:00N 23°58' W 112°24'5212.2
2017-Oct-02 08:45N 24°39' W 112°60'312.1
2017-Oct-02 08:30N 24°41' W 113°02'2312.4
2017-Oct-02 06:40N 24°59' W 113°17'212.9
2017-Oct-02 06:30N 25°01' W 113°18'812.5
2017-Oct-02 05:52N 25°07' W 113°24'512.6
2017-Oct-02 05:28N 25°11' W 113°27'912.7
2017-Oct-02 04:45N 25°18' W 113°33'512.9
2017-Oct-02 04:21N 25°22' W 113°37'412.6
2017-Oct-02 04:00N 25°26' W 113°40'612.4
2017-Oct-02 03:30N 25°31' W 113°44'2312.3
2017-Oct-02 01:41N 25°48' W 113°59'212.2
2017-Oct-02 01:30N 25°50' W 114°01'612.2
2017-Oct-02 01:00N 25°55' W 114°05'812.2
2017-Oct-02 00:21N 26°01' W 114°10'3412.1
2017-Oct-01 21:33N 26°28' W 114°33'112.6
2017-Oct-01 21:29N 26°28' W 114°34'612.7
2017-Oct-01 21:00N 26°33' W 114°38'3012.9
2017-Oct-01 18:39N 26°57' W 114°59'512.7
2017-Oct-01 18:16N 27°01' W 115°02'312.4
2017-Oct-01 18:00N 27°04' W 115°05'2012.6
2017-Oct-01 16:25N 27°19' W 115°19'712.9
2017-Oct-01 15:54N 27°25' W 115°23'512.7
2017-Oct-01 15:30N 27°29' W 115°27'612.8
2017-Oct-01 15:00N 27°34' W 115°31'913.0
2017-Oct-01 14:20N 27°41' W 115°37'513.4
2017-Oct-01 13:58N 27°44' W 115°41'713.1
2017-Oct-01 13:28N 27°49' W 115°45'612.9
2017-Oct-01 13:00N 27°54' W 115°49'813.3
2017-Oct-01 12:22N 28°01' W 115°55'513.0
2017-Oct-01 12:00N 28°05' W 115°58'912.7
2017-Oct-01 11:16N 28°13' W 116°04'313.0
2017-Oct-01 11:00N 28°16' W 116°05'713.0
2017-Oct-01 10:30N 28°22' W 116°07'713.0
2017-Oct-01 10:00N 28°29' W 116°09'612.9
2017-Oct-01 09:30N 28°35' W 116°11'6513.0
2017-Oct-01 04:31N 29°38' W 116°30'013.1
2017-Oct-01 04:30N 29°38' W 116°30'912.9
2017-Oct-01 03:49N 29°46' W 116°33'158 5.4
2017-Sep-29 22:40N 32°22' W 117°05'0 0.0
2017-Sep-29 22:22N 32°22' W 117°05'0 0.0
2017-Sep-29 18:46N 32°22' W 117°05'0 0.0
2017-Sep-29 18:30N 32°22' W 117°05'0 0.0
2017-Sep-29 18:00N 32°22' W 117°05'0 0.3
2017-Sep-29 17:30N 32°22' W 117°06'1 2.8
2017-Sep-29 17:00N 32°21' W 117°06'0 0.0
2017-Sep-28 23:57N 32°21' W 117°06'0 0.8
2017-Sep-28 23:30N 32°20' W 117°06'2 4.5
2017-Sep-28 23:00N 32°20' W 117°09'5 9.6
2017-Sep-28 22:30N 32°17' W 117°13'611.5
2017-Sep-28 22:01N 32°13' W 117°17'612.1
2017-Sep-28 21:30N 32°08' W 117°22'612.0
2017-Sep-28 21:00N 32°04' W 117°27'612.0
2017-Sep-28 20:30N 31°60' W 117°32'612.2
2017-Sep-28 20:00N 31°55' W 117°37'612.4
2017-Sep-28 19:30N 31°51' W 117°42'612.4
2017-Sep-28 19:01N 31°46' W 117°47'612.4
2017-Sep-28 18:30N 31°42' W 117°52'612.3
2017-Sep-28 18:01N 31°37' W 117°57'612.0
2017-Sep-28 17:30N 31°33' W 118°02'611.8
2017-Sep-28 17:00N 31°29' W 118°07'612.0
2017-Sep-28 16:30N 31°24' W 118°12'612.0
2017-Sep-28 16:00N 31°20' W 118°17'612.2
2017-Sep-28 15:30N 31°16' W 118°22'612.4
2017-Sep-28 15:00N 31°11' W 118°27'612.4
2017-Sep-28 14:30N 31°07' W 118°32'611.6
2017-Sep-28 14:00N 31°04' W 118°38'612.1
2017-Sep-28 13:30N 31°03' W 118°45'611.9
2017-Sep-28 13:00N 31°02' W 118°52'611.9
2017-Sep-28 12:30N 31°01' W 118°59'611.9
2017-Sep-28 12:00N 30°59' W 119°05'611.9
2017-Sep-28 11:30N 30°58' W 119°12'611.8
2017-Sep-28 11:00N 30°57' W 119°19'611.8
2017-Sep-28 10:30N 30°56' W 119°26'611.7
2017-Sep-28 10:00N 30°55' W 119°32'611.9
2017-Sep-28 09:30N 30°54' W 119°39'612.0
2017-Sep-28 09:00N 30°52' W 119°46'612.3
2017-Sep-28 08:30N 30°51' W 119°53'612.1
2017-Sep-28 08:00N 30°50' W 119°60'612.0
2017-Sep-28 07:30N 30°49' W 120°07'611.9
2017-Sep-28 07:00N 30°47' W 120°14'612.0
2017-Sep-28 06:30N 30°46' W 120°20'611.9
2017-Sep-28 06:00N 30°45' W 120°27'611.8
2017-Sep-28 05:30N 30°44' W 120°34'611.9
2017-Sep-28 05:00N 30°43' W 120°41'611.9
2017-Sep-28 04:30N 30°41' W 120°47'611.7
2017-Sep-28 04:00N 30°40' W 120°54'711.6
2017-Sep-28 03:26N 30°39' W 121°02'511.9
2017-Sep-28 03:00N 30°38' W 121°08'912.1
2017-Sep-28 02:17N 30°36' W 121°17'511.9
2017-Sep-28 01:50N 30°35' W 121°24'411.5
2017-Sep-28 01:26N 30°34' W 121°29'611.6
2017-Sep-28 00:55N 30°33' W 121°36'711.7
2017-Sep-28 00:17N 30°31' W 121°44'711.6
2017-Sep-27 23:42N 30°30' W 121°52'4112.6
2017-Sep-27 20:26N 30°54' W 122°30'612.0
2017-Sep-27 19:58N 30°58' W 122°35'812.1
2017-Sep-27 19:19N 31°04' W 122°42'512.0
2017-Sep-27 18:56N 31°07' W 122°45'511.9
2017-Sep-27 18:30N 31°11' W 122°50'711.9
2017-Sep-27 17:57N 31°15' W 122°55'511.7
2017-Sep-27 17:30N 31°19' W 122°59'611.7
2017-Sep-27 17:00N 31°23' W 123°04'611.7
2017-Sep-27 16:30N 31°27' W 123°09'611.8
2017-Sep-27 16:00N 31°31' W 123°14'611.9
2017-Sep-27 15:30N 31°36' W 123°19'711.8
2017-Sep-27 14:56N 31°40' W 123°25'2911.8
2017-Sep-27 12:28N 32°03' W 123°46'3211.8
2017-Sep-27 09:43N 32°30' W 124°06'411.8
2017-Sep-27 09:22N 32°34' W 124°09'3411.8
2017-Sep-27 06:30N 33°04' W 124°28'230 9.6
2017-Sep-26 06:37N 36°53' W 124°05'211.5
2017-Sep-26 06:26N 36°54' W 124°03'511.6
2017-Sep-26 06:00N 36°57' W 123°59'611.3
2017-Sep-26 05:30N 37°01' W 123°53'611.6
2017-Sep-26 05:00N 37°05' W 123°48'611.7
2017-Sep-26 04:30N 37°08' W 123°42'611.7
2017-Sep-26 04:01N 37°12' W 123°36'611.6
2017-Sep-26 03:30N 37°16' W 123°31'611.5
2017-Sep-26 03:01N 37°20' W 123°26'611.1
2017-Sep-26 02:30N 37°23' W 123°20'611.2
2017-Sep-26 02:00N 37°27' W 123°15'611.3
2017-Sep-26 01:30N 37°30' W 123°09'611.3
2017-Sep-26 01:00N 37°34' W 123°04'611.5
2017-Sep-26 00:31N 37°37' W 122°58'611.6
2017-Sep-26 00:00N 37°41' W 122°52'611.1
2017-Sep-25 23:30N 37°43' W 122°46'510.1
2017-Sep-25 23:00N 37°46' W 122°40'5 9.6
2017-Sep-25 22:30N 37°47' W 122°34'5 9.4
2017-Sep-25 22:00N 37°49' W 122°29'4 7.9
2017-Sep-25 21:31N 37°51' W 122°25'4 8.7
2017-Sep-25 21:00N 37°55' W 122°27'4 8.1
2017-Sep-25 20:30N 37°59' W 122°26'4 7.8
2017-Sep-25 20:00N 38°02' W 122°22'4 7.4
2017-Sep-25 19:31N 38°03' W 122°18'2 1.6
2017-Sep-25 18:33N 38°03' W 122°16'0 0.0
2017-Sep-25 18:09N 38°03' W 122°16'0 0.0
2017-Sep-25 17:57N 38°03' W 122°16'0 0.0
2017-Sep-25 17:27N 38°03' W 122°16'0 0.0
2017-Sep-25 13:57N 38°03' W 122°16'0 0.0
2017-Sep-25 13:27N 38°03' W 122°16'0 0.0
2017-Sep-25 07:33N 38°03' W 122°16'0 0.0
2017-Sep-25 07:21N 38°03' W 122°16'0 0.0
2017-Sep-25 06:51N 38°03' W 122°16'0 0.0
2017-Sep-25 06:27N 38°03' W 122°16'0 0.0
2017-Sep-24 16:45N 38°03' W 122°16'0 0.0
2017-Sep-24 14:33N 38°03' W 122°16'0 0.0
2017-Sep-24 14:27N 38°03' W 122°16'0 0.0
2017-Sep-24 13:57N 38°03' W 122°16'0 0.0
2017-Sep-24 13:27N 38°03' W 122°16'0 0.0
2017-Sep-24 12:51N 38°03' W 122°16'0 0.0
2017-Sep-24 12:27N 38°03' W 122°16'0 0.0
2017-Sep-24 11:09N 38°03' W 122°16'0 0.0
2017-Sep-24 10:57N 38°03' W 122°16'0 0.8
2017-Sep-24 10:30N 38°04' W 122°16'3 6.3
2017-Sep-24 10:00N 38°03' W 122°20'510.7
2017-Sep-24 09:30N 37°60' W 122°25'510.6
2017-Sep-24 09:00N 37°55' W 122°27'4 8.3
2017-Sep-24 08:30N 37°51' W 122°26'510.2
2017-Sep-24 08:00N 37°48' W 122°31'611.5
2017-Sep-24 07:30N 37°46' W 122°38'4 8.6
2017-Sep-24 07:00N 37°43' W 122°42'4 7.2
2017-Sep-24 06:30N 37°39' W 122°40'3 6.1
2017-Sep-24 06:00N 37°36' W 122°40'4 7.7
2017-Sep-24 05:30N 37°33' W 122°40'510.0
2017-Sep-24 05:00N 37°28' W 122°40'510.9
2017-Sep-24 04:30N 37°22' W 122°40'510.9
2017-Sep-24 04:00N 37°17' W 122°40'510.7
2017-Sep-24 03:30N 37°11' W 122°40'510.7
2017-Sep-24 03:00N 37°06' W 122°37'510.9
2017-Sep-24 02:30N 37°01' W 122°35'511.0
2017-Sep-24 02:00N 36°56' W 122°32'510.9
2017-Sep-24 01:30N 36°51' W 122°29'510.6
2017-Sep-24 01:00N 36°46' W 122°27'510.2
2017-Sep-24 00:30N 36°42' W 122°24'510.1
2017-Sep-24 00:00N 36°37' W 122°22'510.4
2017-Sep-23 23:30N 36°32' W 122°20'510.2
2017-Sep-23 23:00N 36°27' W 122°18'510.4
2017-Sep-23 22:30N 36°22' W 122°15'510.4
2017-Sep-23 22:00N 36°18' W 122°12'1110.3
2017-Sep-23 20:59N 36°09' W 122°06'3 6.9
2017-Sep-23 20:30N 36°06' W 122°04'  
Track history (hours):
 
Tides and Currents Weather Stations Pressure Air Temp Water Temp Dewpoint Dewpoint Depression Visibility Wind Speed Wind Dir Waves Ship Positions

Overseas Atalmar

Last reported at 2017-Oct-02 17:12 UTC. Time now 2017-Oct-20 16:13 UTC.
Position N 23°18' W 111°48'.
Warning: this ship's position is 17 days out of date.

Length 182 m; draft 7.7 m.

Type: Tanker. MMSI: 538002285.

Date/timePositionNaut miles runAvg speedWind from/ knotsBaromVisibWave heightAir tempDewpointWater temp
2017-Oct-02 17:12N 23°18' W 111°48'3712.4
2017-Oct-02 14:13N 23°47' W 112°14'412.5
2017-Oct-02 13:52N 23°50' W 112°17'412.3
2017-Oct-02 13:30N 23°53' W 112°20'612.2
2017-Oct-02 13:00N 23°58' W 112°24'5212.2
2017-Oct-02 08:45N 24°39' W 112°60'312.1
2017-Oct-02 08:30N 24°41' W 113°02'2312.4
2017-Oct-02 06:40N 24°59' W 113°17'212.9
2017-Oct-02 06:30N 25°01' W 113°18'812.5
2017-Oct-02 05:52N 25°07' W 113°24'512.6
2017-Oct-02 05:28N 25°11' W 113°27'912.7
2017-Oct-02 04:45N 25°18' W 113°33'512.9
2017-Oct-02 04:21N 25°22' W 113°37'412.6
2017-Oct-02 04:00N 25°26' W 113°40'612.4
2017-Oct-02 03:30N 25°31' W 113°44'2312.3
2017-Oct-02 01:41N 25°48' W 113°59'212.2
2017-Oct-02 01:30N 25°50' W 114°01'612.2
2017-Oct-02 01:00N 25°55' W 114°05'812.2
2017-Oct-02 00:21N 26°01' W 114°10'3412.1
2017-Oct-01 21:33N 26°28' W 114°33'112.6
2017-Oct-01 21:29N 26°28' W 114°34'612.7
2017-Oct-01 21:00N 26°33' W 114°38'3012.9
2017-Oct-01 18:39N 26°57' W 114°59'512.7
2017-Oct-01 18:16N 27°01' W 115°02'312.4
2017-Oct-01 18:00N 27°04' W 115°05'2012.6
2017-Oct-01 16:25N 27°19' W 115°19'712.9
2017-Oct-01 15:54N 27°25' W 115°23'512.7
2017-Oct-01 15:30N 27°29' W 115°27'612.8
2017-Oct-01 15:00N 27°34' W 115°31'913.0
2017-Oct-01 14:20N 27°41' W 115°37'513.4
2017-Oct-01 13:58N 27°44' W 115°41'713.1
2017-Oct-01 13:28N 27°49' W 115°45'612.9
2017-Oct-01 13:00N 27°54' W 115°49'813.3
2017-Oct-01 12:22N 28°01' W 115°55'513.0
2017-Oct-01 12:00N 28°05' W 115°58'912.7
2017-Oct-01 11:16N 28°13' W 116°04'313.0
2017-Oct-01 11:00N 28°16' W 116°05'713.0
2017-Oct-01 10:30N 28°22' W 116°07'713.0
2017-Oct-01 10:00N 28°29' W 116°09'612.9
2017-Oct-01 09:30N 28°35' W 116°11'6513.0
2017-Oct-01 04:31N 29°38' W 116°30'013.1
2017-Oct-01 04:30N 29°38' W 116°30'912.9
2017-Oct-01 03:49N 29°46' W 116°33'158 5.4
2017-Sep-29 22:40N 32°22' W 117°05'0 0.0
2017-Sep-29 22:22N 32°22' W 117°05'0 0.0
2017-Sep-29 18:46N 32°22' W 117°05'0 0.0
2017-Sep-29 18:30N 32°22' W 117°05'0 0.0
2017-Sep-29 18:00N 32°22' W 117°05'0 0.3
2017-Sep-29 17:30N 32°22' W 117°06'1 2.8
2017-Sep-29 17:00N 32°21' W 117°06'0 0.0
2017-Sep-28 23:57N 32°21' W 117°06'0 0.8
2017-Sep-28 23:30N 32°20' W 117°06'2 4.5
2017-Sep-28 23:00N 32°20' W 117°09'5 9.6
2017-Sep-28 22:30N 32°17' W 117°13'611.5
2017-Sep-28 22:01N 32°13' W 117°17'612.1
2017-Sep-28 21:30N 32°08' W 117°22'612.0
2017-Sep-28 21:00N 32°04' W 117°27'612.0
2017-Sep-28 20:30N 31°60' W 117°32'612.2
2017-Sep-28 20:00N 31°55' W 117°37'612.4
2017-Sep-28 19:30N 31°51' W 117°42'612.4
2017-Sep-28 19:01N 31°46' W 117°47'612.4
2017-Sep-28 18:30N 31°42' W 117°52'612.3
2017-Sep-28 18:01N 31°37' W 117°57'612.0
2017-Sep-28 17:30N 31°33' W 118°02'611.8
2017-Sep-28 17:00N 31°29' W 118°07'612.0
2017-Sep-28 16:30N 31°24' W 118°12'612.0
2017-Sep-28 16:00N 31°20' W 118°17'612.2
2017-Sep-28 15:30N 31°16' W 118°22'612.4
2017-Sep-28 15:00N 31°11' W 118°27'612.4
2017-Sep-28 14:30N 31°07' W 118°32'611.6
2017-Sep-28 14:00N 31°04' W 118°38'612.1
2017-Sep-28 13:30N 31°03' W 118°45'611.9
2017-Sep-28 13:00N 31°02' W 118°52'611.9
2017-Sep-28 12:30N 31°01' W 118°59'611.9
2017-Sep-28 12:00N 30°59' W 119°05'611.9
2017-Sep-28 11:30N 30°58' W 119°12'611.8
2017-Sep-28 11:00N 30°57' W 119°19'611.8
2017-Sep-28 10:30N 30°56' W 119°26'611.7
2017-Sep-28 10:00N 30°55' W 119°32'611.9
2017-Sep-28 09:30N 30°54' W 119°39'612.0
2017-Sep-28 09:00N 30°52' W 119°46'612.3
2017-Sep-28 08:30N 30°51' W 119°53'612.1
2017-Sep-28 08:00N 30°50' W 119°60'612.0
2017-Sep-28 07:30N 30°49' W 120°07'611.9
2017-Sep-28 07:00N 30°47' W 120°14'612.0
2017-Sep-28 06:30N 30°46' W 120°20'611.9
2017-Sep-28 06:00N 30°45' W 120°27'611.8
2017-Sep-28 05:30N 30°44' W 120°34'611.9
2017-Sep-28 05:00N 30°43' W 120°41'611.9
2017-Sep-28 04:30N 30°41' W 120°47'611.7
2017-Sep-28 04:00N 30°40' W 120°54'711.6
2017-Sep-28 03:26N 30°39' W 121°02'511.9
2017-Sep-28 03:00N 30°38' W 121°08'912.1
2017-Sep-28 02:17N 30°36' W 121°17'511.9
2017-Sep-28 01:50N 30°35' W 121°24'411.5
2017-Sep-28 01:26N 30°34' W 121°29'611.6
2017-Sep-28 00:55N 30°33' W 121°36'711.7
2017-Sep-28 00:17N 30°31' W 121°44'711.6
2017-Sep-27 23:42N 30°30' W 121°52'4112.6
2017-Sep-27 20:26N 30°54' W 122°30'612.0
2017-Sep-27 19:58N 30°58' W 122°35'812.1
2017-Sep-27 19:19N 31°04' W 122°42'512.0
2017-Sep-27 18:56N 31°07' W 122°45'511.9
2017-Sep-27 18:30N 31°11' W 122°50'711.9
2017-Sep-27 17:57N 31°15' W 122°55'511.7
2017-Sep-27 17:30N 31°19' W 122°59'611.7
2017-Sep-27 17:00N 31°23' W 123°04'611.7
2017-Sep-27 16:30N 31°27' W 123°09'611.8
2017-Sep-27 16:00N 31°31' W 123°14'611.9
2017-Sep-27 15:30N 31°36' W 123°19'711.8
2017-Sep-27 14:56N 31°40' W 123°25'2911.8
2017-Sep-27 12:28N 32°03' W 123°46'3211.8
2017-Sep-27 09:43N 32°30' W 124°06'411.8
2017-Sep-27 09:22N 32°34' W 124°09'3411.8
2017-Sep-27 06:30N 33°04' W 124°28'230 9.6
2017-Sep-26 06:37N 36°53' W 124°05'211.5
2017-Sep-26 06:26N 36°54' W 124°03'511.6
2017-Sep-26 06:00N 36°57' W 123°59'611.3
2017-Sep-26 05:30N 37°01' W 123°53'611.6
2017-Sep-26 05:00N 37°05' W 123°48'611.7
2017-Sep-26 04:30N 37°08' W 123°42'611.7
2017-Sep-26 04:01N 37°12' W 123°36'611.6
2017-Sep-26 03:30N 37°16' W 123°31'611.5
2017-Sep-26 03:01N 37°20' W 123°26'611.1
2017-Sep-26 02:30N 37°23' W 123°20'611.2
2017-Sep-26 02:00N 37°27' W 123°15'611.3
2017-Sep-26 01:30N 37°30' W 123°09'611.3
2017-Sep-26 01:00N 37°34' W 123°04'611.5
2017-Sep-26 00:31N 37°37' W 122°58'611.6
2017-Sep-26 00:00N 37°41' W 122°52'611.1
2017-Sep-25 23:30N 37°43' W 122°46'510.1
2017-Sep-25 23:00N 37°46' W 122°40'5 9.6
2017-Sep-25 22:30N 37°47' W 122°34'5 9.4
2017-Sep-25 22:00N 37°49' W 122°29'4 7.9
2017-Sep-25 21:31N 37°51' W 122°25'4 8.7
2017-Sep-25 21:00N 37°55' W 122°27'4 8.1
2017-Sep-25 20:30N 37°59' W 122°26'4 7.8
2017-Sep-25 20:00N 38°02' W 122°22'4 7.4
2017-Sep-25 19:31N 38°03' W 122°18'2 1.6
2017-Sep-25 18:33N 38°03' W 122°16'0 0.0
2017-Sep-25 18:09N 38°03' W 122°16'0 0.0
2017-Sep-25 17:57N 38°03' W 122°16'0 0.0
2017-Sep-25 17:27N 38°03' W 122°16'0 0.0
2017-Sep-25 13:57N 38°03' W 122°16'0 0.0
2017-Sep-25 13:27N 38°03' W 122°16'0 0.0
2017-Sep-25 07:33N 38°03' W 122°16'0 0.0
2017-Sep-25 07:21N 38°03' W 122°16'0 0.0
2017-Sep-25 06:51N 38°03' W 122°16'0 0.0
2017-Sep-25 06:27N 38°03' W 122°16'0 0.0
2017-Sep-24 16:45N 38°03' W 122°16'0 0.0
2017-Sep-24 14:33N 38°03' W 122°16'0 0.0
2017-Sep-24 14:27N 38°03' W 122°16'0 0.0
2017-Sep-24 13:57N 38°03' W 122°16'0 0.0
2017-Sep-24 13:27N 38°03' W 122°16'0 0.0
2017-Sep-24 12:51N 38°03' W 122°16'0 0.0
2017-Sep-24 12:27N 38°03' W 122°16'0 0.0
2017-Sep-24 11:09N 38°03' W 122°16'0 0.0
2017-Sep-24 10:57N 38°03' W 122°16'0 0.8
2017-Sep-24 10:30N 38°04' W 122°16'3 6.3
2017-Sep-24 10:00N 38°03' W 122°20'510.7
2017-Sep-24 09:30N 37°60' W 122°25'510.6
2017-Sep-24 09:00N 37°55' W 122°27'4 8.3
2017-Sep-24 08:30N 37°51' W 122°26'510.2
2017-Sep-24 08:00N 37°48' W 122°31'611.5
2017-Sep-24 07:30N 37°46' W 122°38'4 8.6
2017-Sep-24 07:00N 37°43' W 122°42'4 7.2
2017-Sep-24 06:30N 37°39' W 122°40'3 6.1
2017-Sep-24 06:00N 37°36' W 122°40'4 7.7
2017-Sep-24 05:30N 37°33' W 122°40'510.0
2017-Sep-24 05:00N 37°28' W 122°40'510.9
2017-Sep-24 04:30N 37°22' W 122°40'510.9
2017-Sep-24 04:00N 37°17' W 122°40'510.7
2017-Sep-24 03:30N 37°11' W 122°40'510.7
2017-Sep-24 03:00N 37°06' W 122°37'510.9
2017-Sep-24 02:30N 37°01' W 122°35'511.0
2017-Sep-24 02:00N 36°56' W 122°32'510.9
2017-Sep-24 01:30N 36°51' W 122°29'510.6
2017-Sep-24 01:00N 36°46' W 122°27'510.2
2017-Sep-24 00:30N 36°42' W 122°24'510.1
2017-Sep-24 00:00N 36°37' W 122°22'510.4
2017-Sep-23 23:30N 36°32' W 122°20'510.2
2017-Sep-23 23:00N 36°27' W 122°18'510.4
2017-Sep-23 22:30N 36°22' W 122°15'510.4
2017-Sep-23 22:00N 36°18' W 122°12'1110.3
2017-Sep-23 20:59N 36°09' W 122°06'3 6.9
2017-Sep-23 20:30N 36°06' W 122°04'  

Dump ship's entire track history